Time;durP1;ratioP1;P1;durP2;ratioP2;P2;SDS_P1;SDS_P2;PMS_P1;PMS_P2;Temp;Humidity;BMP_temperature;BMP_pressure;BME280_temperature;BME280_humidity;BME280_pressure;Samples;Min_cycle;Max_cycle;Signal;HPM_P1;HPM_P2
2024/01/25 00:00:32;;;;;;;;;;;8.10;99.90;;;;;;8462802;28;19928;-75
2024/01/25 00:09:37;;;;;;;;;;;8.00;99.90;;;;;;8456188;28;20002;-75
2024/01/25 00:13:39;;;;;;;;;;;7.90;99.90;;;;;;8462055;27;19924;-75
2024/01/25 00:17:41;;;;;;;;;;;7.80;99.90;;;;;;8443891;28;19924;-74
2024/01/25 00:21:44;;;;;;;;;;;7.80;99.90;;;;;;8457006;27;19928;-74
2024/01/25 00:25:45;;;;;;;;;;;7.70;99.90;;;;;;8442159;28;19931;-74
2024/01/25 00:29:47;;;;;;;;;;;7.60;99.90;;;;;;8450806;28;19924;-75
2024/01/25 00:33:49;;;;;;;;;;;7.60;99.90;;;;;;8458275;28;19924;-74
2024/01/25 00:37:51;;;;;;;;;;;7.50;99.90;;;;;;8460053;28;19924;-75
2024/01/25 00:41:56;;;;;;;;;;;7.40;99.90;;;;;;8454012;28;19931;-75
2024/01/25 00:45:58;;;;;;;;;;;7.40;99.90;;;;;;8462923;27;19931;-75
2024/01/25 00:50:00;;;;;;;;;;;7.30;99.90;;;;;;8458608;28;19924;-75
2024/01/25 00:54:02;;;;;;;;;;;7.20;99.90;;;;;;8449990;28;19927;-75
2024/01/25 00:58:04;;;;;;;;;;;7.20;99.90;;;;;;8433137;28;19923;-74
2024/01/25 01:02:10;;;;;;;;;;;7.10;99.90;;;;;;8443821;27;19965;-75
2024/01/25 01:06:12;;;;;;;;;;;7.00;99.90;;;;;;8441724;28;19923;-75
2024/01/25 01:10:14;;;;;;;;;;;7.00;99.90;;;;;;8441633;28;19930;-75
2024/01/25 01:14:16;;;;;;;;;;;6.90;99.90;;;;;;8448546;27;20393;-75
2024/01/25 01:18:17;;;;;;;;;;;6.80;99.90;;;;;;8446817;28;19964;-75
2024/01/25 01:22:19;;;;;;;;;;;6.80;99.90;;;;;;8443529;28;19924;-75
2024/01/25 01:26:21;;;;;;;;;;;6.70;99.90;;;;;;8428762;28;20333;-74
2024/01/25 01:30:23;;;;;;;;;;;6.70;99.90;;;;;;8443255;28;19931;-74
2024/01/25 01:34:24;;;;;;;;;;;6.70;99.90;;;;;;8451427;28;19977;-74
2024/01/25 01:38:26;;;;;;;;;;;6.60;99.90;;;;;;8452843;28;19931;-75
2024/01/25 01:42:28;;;;;;;;;;;6.60;99.90;;;;;;8453950;28;19923;-74
2024/01/25 01:46:37;;;;;;;;;;;6.60;99.90;;;;;;8433995;28;19970;-74
2024/01/25 01:50:39;;;;;;;;;;;6.50;99.90;;;;;;8442028;28;19934;-75
2024/01/25 01:54:41;;;;;;;;;;;6.50;99.90;;;;;;8458305;28;19923;-74
2024/01/25 01:58:43;;;;;;;;;;;6.40;99.90;;;;;;8454353;28;19985;-74
2024/01/25 02:07:48;;;;;;;;;;;6.20;99.90;;;;;;8450439;28;19964;-75
2024/01/25 02:12:03;;;;;;;;;;;6.10;99.90;;;;;;8452137;28;20349;-74
2024/01/25 02:16:07;;;;;;;;;;;6.10;99.90;;;;;;8438035;28;19927;-75
2024/01/25 02:25:06;;;;;;;;;;;6.10;99.90;;;;;;8451626;27;19935;-75
2024/01/25 02:29:09;;;;;;;;;;;6.10;99.90;;;;;;8450825;28;19924;-75
2024/01/25 02:33:11;;;;;;;;;;;6.10;99.90;;;;;;8458213;28;19924;-75
2024/01/25 02:37:14;;;;;;;;;;;6.00;99.90;;;;;;8439264;28;19923;-75
2024/01/25 02:41:16;;;;;;;;;;;6.00;99.90;;;;;;8453411;28;19928;-75
2024/01/25 02:45:17;;;;;;;;;;;6.00;99.90;;;;;;8446080;28;19947;-75
2024/01/25 02:49:19;;;;;;;;;;;5.90;99.90;;;;;;8450786;28;19924;-75
2024/01/25 02:53:21;;;;;;;;;;;5.90;99.90;;;;;;8454026;28;20268;-75
2024/01/25 02:57:23;;;;;;;;;;;5.80;99.90;;;;;;8450877;28;19943;-74
2024/01/25 03:01:24;;;;;;;;;;;5.80;99.90;;;;;;8456517;28;19947;-74
2024/01/25 03:05:26;;;;;;;;;;;5.70;99.90;;;;;;8437530;28;19958;-75
2024/01/25 03:09:28;;;;;;;;;;;5.60;99.90;;;;;;8457309;28;19928;-74
2024/01/25 03:13:30;;;;;;;;;;;5.60;99.90;;;;;;8457254;28;19930;-74
2024/01/25 03:17:31;;;;;;;;;;;5.40;99.90;;;;;;8471346;28;19924;-75
2024/01/25 03:21:33;;;;;;;;;;;5.20;99.90;;;;;;8464603;28;19977;-74
2024/01/25 03:25:35;;;;;;;;;;;5.10;99.90;;;;;;8439543;27;19978;-74
2024/01/25 03:29:46;;;;;;;;;;;4.90;99.90;;;;;;8459787;28;19930;-74
2024/01/25 03:33:48;;;;;;;;;;;4.80;99.90;;;;;;8464418;28;19950;-75
2024/01/25 03:37:49;;;;;;;;;;;4.80;99.90;;;;;;8450025;28;19931;-74
2024/01/25 03:41:51;;;;;;;;;;;4.70;99.90;;;;;;8462269;28;19931;-75
2024/01/25 03:45:53;;;;;;;;;;;4.60;99.90;;;;;;8444019;27;19931;-74
2024/01/25 03:49:55;;;;;;;;;;;4.60;99.90;;;;;;8460666;27;19924;-74
2024/01/25 03:54:00;;;;;;;;;;;4.50;99.90;;;;;;8448328;28;20011;-74
2024/01/25 03:58:01;;;;;;;;;;;4.40;99.90;;;;;;8467215;27;19964;-74
2024/01/25 04:02:03;;;;;;;;;;;4.40;99.90;;;;;;8444457;28;20371;-74
2024/01/25 04:06:05;;;;;;;;;;;4.30;99.90;;;;;;8454573;28;19924;-74
2024/01/25 04:10:07;;;;;;;;;;;4.20;99.90;;;;;;8447860;28;19934;-74
2024/01/25 04:14:09;;;;;;;;;;;4.20;99.90;;;;;;8462692;28;19924;-74
2024/01/25 04:18:10;;;;;;;;;;;4.10;99.90;;;;;;8466345;27;19973;-75
2024/01/25 04:22:18;;;;;;;;;;;4.10;99.90;;;;;;8460410;28;19930;-75
2024/01/25 04:26:20;;;;;;;;;;;4.00;99.90;;;;;;8447808;28;19928;-74
2024/01/25 04:30:40;;;;;;;;;;;4.00;99.90;;;;;;8455888;27;19924;-74
2024/01/25 04:34:43;;;;;;;;;;;3.90;99.90;;;;;;8459630;28;19927;-74
2024/01/25 04:38:46;;;;;;;;;;;3.90;99.90;;;;;;8442778;27;19923;-75
2024/01/25 04:42:47;;;;;;;;;;;3.80;99.90;;;;;;8453808;28;19974;-74
2024/01/25 04:46:49;;;;;;;;;;;3.70;99.90;;;;;;8441372;28;19932;-74
2024/01/25 04:50:51;;;;;;;;;;;3.70;99.90;;;;;;8448152;27;19924;-74
2024/01/25 04:54:53;;;;;;;;;;;3.70;99.90;;;;;;8459438;28;19970;-74
2024/01/25 04:58:54;;;;;;;;;;;3.80;99.90;;;;;;8447401;27;20004;-74
2024/01/25 05:02:58;;;;;;;;;;;3.80;99.90;;;;;;8459306;28;20151;-75
2024/01/25 05:06:59;;;;;;;;;;;3.70;99.90;;;;;;8442118;28;19924;-74
2024/01/25 05:11:02;;;;;;;;;;;3.70;99.90;;;;;;8440835;28;19924;-74
2024/01/25 05:15:05;;;;;;;;;;;3.80;99.90;;;;;;8459302;28;19956;-74
2024/01/25 05:19:07;;;;;;;;;;;3.80;99.90;;;;;;8459799;27;19924;-75
2024/01/25 05:23:09;;;;;;;;;;;3.80;99.90;;;;;;8458336;28;19930;-75
2024/01/25 05:27:10;;;;;;;;;;;3.90;99.90;;;;;;8451283;28;20372;-74
2024/01/25 05:31:12;;;;;;;;;;;3.80;99.90;;;;;;8413168;28;20311;-74
2024/01/25 05:35:14;;;;;;;;;;;3.70;99.90;;;;;;8455551;28;19931;-74
2024/01/25 05:39:17;;;;;;;;;;;3.60;99.90;;;;;;8462115;28;20303;-74
2024/01/25 05:43:18;;;;;;;;;;;3.60;99.90;;;;;;8461446;28;19931;-74
2024/01/25 05:47:21;;;;;;;;;;;3.60;99.90;;;;;;8463718;28;19971;-74
2024/01/25 05:51:22;;;;;;;;;;;3.70;99.90;;;;;;8442770;28;19923;-74
2024/01/25 05:55:24;;;;;;;;;;;3.80;99.90;;;;;;8460356;28;20320;-74
2024/01/25 05:59:26;;;;;;;;;;;3.80;99.90;;;;;;8458051;28;19931;-74
2024/01/25 06:04:02;;;;;;;;;;;3.90;99.90;;;;;;8456589;28;19923;-75
2024/01/25 06:08:04;;;;;;;;;;;3.90;99.90;;;;;;8459485;28;19969;-75
2024/01/25 06:12:06;;;;;;;;;;;3.80;99.90;;;;;;8455641;28;20340;-74
2024/01/25 06:16:07;;;;;;;;;;;3.70;99.90;;;;;;8458400;28;19923;-74
2024/01/25 06:20:10;;;;;;;;;;;3.80;99.90;;;;;;8441552;28;19928;-74
2024/01/25 06:24:12;;;;;;;;;;;3.70;99.90;;;;;;8457047;28;20369;-74
2024/01/25 06:28:14;;;;;;;;;;;3.60;99.90;;;;;;8440431;28;19924;-74
2024/01/25 06:32:16;;;;;;;;;;;3.60;99.90;;;;;;8458534;28;19938;-74
2024/01/25 06:36:26;;;;;;;;;;;3.60;99.90;;;;;;8443548;28;19931;-74
2024/01/25 06:40:28;;;;;;;;;;;3.50;99.90;;;;;;8462874;28;20371;-74
2024/01/25 06:44:30;;;;;;;;;;;3.30;99.90;;;;;;8460361;28;20278;-74
2024/01/25 06:48:32;;;;;;;;;;;3.30;99.90;;;;;;8462149;28;19931;-74
2024/01/25 06:52:34;;;;;;;;;;;3.30;99.90;;;;;;8458615;28;19932;-74
2024/01/25 06:56:36;;;;;;;;;;;3.20;99.90;;;;;;8458403;28;19924;-74
2024/01/25 07:00:53;;;;;;;;;;;3.10;99.90;;;;;;8459068;28;19930;-74
2024/01/25 07:04:55;;;;;;;;;;;3.00;99.90;;;;;;8437168;28;19930;-74
2024/01/25 07:08:57;;;;;;;;;;;3.10;99.90;;;;;;8459608;28;19954;-74
2024/01/25 07:12:59;;;;;;;;;;;3.10;99.90;;;;;;8440279;28;19931;-74
2024/01/25 07:17:00;;;;;;;;;;;3.00;99.90;;;;;;8452224;28;19938;-74
2024/01/25 07:21:02;;;;;;;;;;;2.90;99.90;;;;;;8459333;28;19947;-74
2024/01/25 07:25:04;;;;;;;;;;;3.00;99.90;;;;;;8440249;28;20366;-75
2024/01/25 07:29:06;;;;;;;;;;;3.10;99.90;;;;;;8453317;28;19924;-74
2024/01/25 07:33:08;;;;;;;;;;;3.10;99.90;;;;;;8453640;28;19996;-74
2024/01/25 07:37:11;;;;;;;;;;;3.00;99.90;;;;;;8458435;28;19924;-74
2024/01/25 07:41:13;;;;;;;;;;;3.00;99.90;;;;;;8457325;28;19930;-74
2024/01/25 07:45:14;;;;;;;;;;;3.10;99.90;;;;;;8453462;28;19924;-74
2024/01/25 07:49:16;;;;;;;;;;;3.20;99.90;;;;;;8439804;28;19932;-75
2024/01/25 07:53:18;;;;;;;;;;;3.10;99.90;;;;;;8455826;28;19928;-74
2024/01/25 07:57:20;;;;;;;;;;;3.10;99.90;;;;;;8437233;28;19923;-74
2024/01/25 08:01:22;;;;;;;;;;;3.10;99.90;;;;;;8432341;28;19953;-74
2024/01/25 08:05:24;;;;;;;;;;;3.20;99.90;;;;;;8443177;28;19999;-74
2024/01/25 08:09:34;;;;;;;;;;;3.30;99.90;;;;;;8460555;28;19950;-74
2024/01/25 08:13:36;;;;;;;;;;;3.50;99.90;;;;;;8464502;28;20394;-74
2024/01/25 08:17:38;;;;;;;;;;;3.50;99.90;;;;;;8463969;28;20018;-74
2024/01/25 08:21:39;;;;;;;;;;;3.40;99.90;;;;;;8444365;28;19932;-74
2024/01/25 08:25:41;;;;;;;;;;;3.40;99.90;;;;;;8456359;28;19931;-74
2024/01/25 08:29:46;;;;;;;;;;;3.50;99.90;;;;;;8456623;28;19957;-74
2024/01/25 08:33:48;;;;;;;;;;;3.60;99.90;;;;;;8463220;28;20348;-75
2024/01/25 08:37:50;;;;;;;;;;;3.80;99.90;;;;;;8459589;28;19982;-74
2024/01/25 08:41:52;;;;;;;;;;;3.90;99.90;;;;;;8460513;28;20352;-74
2024/01/25 08:45:54;;;;;;;;;;;4.00;99.90;;;;;;8443493;28;20432;-74
2024/01/25 08:49:55;;;;;;;;;;;4.00;99.90;;;;;;8453147;27;20325;-74
2024/01/25 08:53:57;;;;;;;;;;;4.10;99.90;;;;;;8439676;28;20455;-74
2024/01/25 08:57:59;;;;;;;;;;;4.20;99.90;;;;;;8442625;28;19931;-74
2024/01/25 09:02:01;;;;;;;;;;;4.20;99.90;;;;;;8441350;28;19979;-75
2024/01/25 09:06:05;;;;;;;;;;;4.30;99.90;;;;;;8433451;28;19924;-75
2024/01/25 09:10:08;;;;;;;;;;;4.40;99.90;;;;;;8439982;28;19927;-74
2024/01/25 09:14:10;;;;;;;;;;;4.40;99.90;;;;;;8459596;28;19924;-74
2024/01/25 09:18:11;;;;;;;;;;;4.50;99.90;;;;;;8455025;28;19981;-74
2024/01/25 09:22:13;;;;;;;;;;;4.70;99.90;;;;;;8448957;28;19931;-74
2024/01/25 09:26:15;;;;;;;;;;;4.80;99.90;;;;;;8448119;28;19924;-74
2024/01/25 09:30:17;;;;;;;;;;;4.90;99.90;;;;;;8456893;28;19924;-75
2024/01/25 09:34:18;;;;;;;;;;;5.00;99.90;;;;;;8455056;28;20241;-75
2024/01/25 09:38:20;;;;;;;;;;;5.10;99.90;;;;;;8443206;28;19927;-74
2024/01/25 09:42:22;;;;;;;;;;;5.20;99.90;;;;;;8458867;27;19934;-75
2024/01/25 09:46:24;;;;;;;;;;;5.30;99.90;;;;;;8460085;28;20320;-75
2024/01/25 09:50:26;;;;;;;;;;;5.30;99.90;;;;;;8457912;28;21917;-74
2024/01/25 09:54:28;;;;;;;;;;;5.40;99.90;;;;;;8458630;28;19924;-74
2024/01/25 09:58:36;;;;;;;;;;;5.50;99.90;;;;;;8442973;28;19923;-75
2024/01/25 10:02:38;;;;;;;;;;;5.60;99.90;;;;;;8458607;28;19928;-75
2024/01/25 10:06:40;;;;;;;;;;;5.70;99.90;;;;;;8458479;28;19928;-74
2024/01/25 10:10:44;;;;;;;;;;;5.80;99.90;;;;;;8459263;28;21659;-75
2024/01/25 10:14:45;;;;;;;;;;;5.90;99.90;;;;;;8459146;28;19923;-74
2024/01/25 10:18:47;;;;;;;;;;;6.00;99.90;;;;;;8462677;28;19928;-75
2024/01/25 10:22:50;;;;;;;;;;;6.20;99.90;;;;;;8455820;28;19923;-74
2024/01/25 10:26:52;;;;;;;;;;;6.30;99.90;;;;;;8433217;28;19938;-74
2024/01/25 10:30:56;;;;;;;;;;;6.50;99.90;;;;;;8459910;28;19930;-75
2024/01/25 10:34:58;;;;;;;;;;;6.60;99.90;;;;;;8456174;28;19938;-74
2024/01/25 10:39:04;;;;;;;;;;;6.70;99.90;;;;;;8438240;28;20279;-74
2024/01/25 10:43:06;;;;;;;;;;;6.80;99.90;;;;;;8458080;27;19935;-75
2024/01/25 10:47:08;;;;;;;;;;;6.80;99.90;;;;;;8453667;28;19930;-74
2024/01/25 10:51:10;;;;;;;;;;;6.80;99.90;;;;;;8458765;28;19927;-75
2024/01/25 10:55:14;;;;;;;;;;;6.80;99.90;;;;;;8451474;28;19924;-75
2024/01/25 10:59:17;;;;;;;;;;;6.90;99.90;;;;;;8458482;28;19934;-75
2024/01/25 11:03:20;;;;;;;;;;;6.90;99.90;;;;;;8456881;28;20371;-75
2024/01/25 11:07:21;;;;;;;;;;;7.00;99.90;;;;;;8456819;28;19932;-75
2024/01/25 11:11:23;;;;;;;;;;;7.00;99.90;;;;;;8458476;28;19924;-75
2024/01/25 11:15:31;;;;;;;;;;;7.00;99.90;;;;;;8455813;28;19969;-75
2024/01/25 11:19:33;;;;;;;;;;;7.00;99.90;;;;;;8452581;28;20308;-75
2024/01/25 11:23:35;;;;;;;;;;;7.10;99.90;;;;;;8439022;28;19953;-74
2024/01/25 11:27:37;;;;;;;;;;;7.10;99.90;;;;;;8433964;28;19963;-75
2024/01/25 11:31:39;;;;;;;;;;;7.10;99.90;;;;;;8445225;28;20318;-75
2024/01/25 11:35:42;;;;;;;;;;;7.20;99.90;;;;;;8460488;28;19931;-75
2024/01/25 11:39:44;;;;;;;;;;;7.20;99.90;;;;;;8452814;28;19924;-75
2024/01/25 11:43:49;;;;;;;;;;;7.30;99.90;;;;;;8460361;28;19935;-75
2024/01/25 11:47:51;;;;;;;;;;;7.30;99.90;;;;;;8444527;28;19969;-75
2024/01/25 11:51:53;;;;;;;;;;;7.30;99.90;;;;;;8464234;28;19930;-75
2024/01/25 11:55:56;;;;;;;;;;;7.40;99.90;;;;;;8440666;28;20363;-75
2024/01/25 11:59:58;;;;;;;;;;;7.40;99.90;;;;;;8462714;28;19923;-75
2024/01/25 12:04:01;;;;;;;;;;;7.40;99.90;;;;;;8457296;28;20237;-75
2024/01/25 12:08:08;;;;;;;;;;;7.40;99.90;;;;;;8468285;27;20465;-75
2024/01/25 12:12:10;;;;;;;;;;;7.50;99.90;;;;;;8454620;28;19932;-75
2024/01/25 12:16:13;;;;;;;;;;;7.60;99.90;;;;;;8462316;27;20421;-74
2024/01/25 12:20:15;;;;;;;;;;;7.80;99.90;;;;;;8466324;27;19924;-75
2024/01/25 12:24:19;;;;;;;;;;;8.00;99.90;;;;;;8465770;28;19931;-75
2024/01/25 12:28:21;;;;;;;;;;;8.20;99.90;;;;;;8431571;28;19932;-74
2024/01/25 12:32:22;;;;;;;;;;;8.30;99.90;;;;;;8423045;28;20034;-75
2024/01/25 12:36:24;;;;;;;;;;;8.30;99.90;;;;;;8414687;28;20364;-75
2024/01/25 12:40:26;;;;;;;;;;;8.30;99.90;;;;;;8422311;27;20371;-75
2024/01/25 12:44:27;;;;;;;;;;;8.30;99.90;;;;;;8428032;27;20125;-74
2024/01/25 12:48:29;;;;;;;;;;;8.20;99.90;;;;;;8429100;28;19935;-75
2024/01/25 12:52:31;;;;;;;;;;;8.10;99.90;;;;;;8418686;27;19935;-75
2024/01/25 12:56:33;;;;;;;;;;;8.10;99.90;;;;;;8424668;27;19977;-75
2024/01/25 13:00:34;;;;;;;;;;;8.20;99.90;;;;;;8426937;28;19924;-75
2024/01/25 13:04:36;;;;;;;;;;;8.20;99.90;;;;;;8425755;27;19934;-75
2024/01/25 13:08:38;;;;;;;;;;;8.10;99.90;;;;;;8432311;27;19931;-75
2024/01/25 13:12:39;;;;;;;;;;;8.10;99.90;;;;;;8429546;27;19931;-75
2024/01/25 13:16:41;;;;;;;;;;;8.10;99.90;;;;;;8426495;27;19924;-75
2024/01/25 13:20:43;;;;;;;;;;;8.10;99.90;;;;;;8434713;28;19927;-75
2024/01/25 13:24:44;;;;;;;;;;;8.20;99.90;;;;;;8415633;28;20288;-75
2024/01/25 13:28:46;;;;;;;;;;;8.20;99.90;;;;;;8406736;28;19934;-75
2024/01/25 13:32:48;;;;;;;;;;;8.20;99.90;;;;;;8411827;27;19970;-75
2024/01/25 13:36:50;;;;;;;;;;;8.30;99.90;;;;;;8430377;27;19935;-75
2024/01/25 13:40:52;;;;;;;;;;;8.30;99.90;;;;;;8441053;28;20032;-75
2024/01/25 13:44:54;;;;;;;;;;;8.20;99.90;;;;;;8433886;27;19985;-75
2024/01/25 13:48:55;;;;;;;;;;;8.20;99.90;;;;;;8427040;28;20294;-75
2024/01/25 13:52:57;;;;;;;;;;;8.30;99.90;;;;;;8430114;28;19924;-75
2024/01/25 13:57:00;;;;;;;;;;;8.20;99.90;;;;;;8426417;28;19924;-75
2024/01/25 14:01:01;;;;;;;;;;;8.30;99.90;;;;;;8422358;27;19972;-75
2024/01/25 14:05:03;;;;;;;;;;;8.30;99.90;;;;;;8430766;28;19927;-75
2024/01/25 14:09:05;;;;;;;;;;;8.30;99.90;;;;;;8430095;28;19928;-75
2024/01/25 14:13:06;;;;;;;;;;;8.30;99.90;;;;;;8427985;27;19928;-75
2024/01/25 14:17:08;;;;;;;;;;;8.30;99.90;;;;;;8406335;28;19928;-75
2024/01/25 14:21:10;;;;;;;;;;;8.30;99.90;;;;;;8429513;28;20379;-75
2024/01/25 14:25:14;;;;;;;;;;;8.30;99.90;;;;;;8420321;28;20024;-75
2024/01/25 14:29:16;;;;;;;;;;;8.30;99.90;;;;;;8411192;28;20454;-74
2024/01/25 14:33:17;;;;;;;;;;;8.30;99.90;;;;;;8422740;28;19981;-75
2024/01/25 14:37:19;;;;;;;;;;;8.30;99.90;;;;;;8424984;28;20019;-75
2024/01/25 14:41:21;;;;;;;;;;;8.30;99.90;;;;;;8425400;28;19927;-75
2024/01/25 14:45:22;;;;;;;;;;;8.30;99.90;;;;;;8419245;28;20382;-75
2024/01/25 14:49:24;;;;;;;;;;;8.30;99.90;;;;;;8424480;28;19924;-75
2024/01/25 14:53:26;;;;;;;;;;;8.30;99.90;;;;;;8428857;28;19935;-75
2024/01/25 14:57:28;;;;;;;;;;;8.30;99.90;;;;;;8419274;28;19924;-75
2024/01/25 15:01:30;;;;;;;;;;;8.30;99.90;;;;;;8426698;28;19932;-75
2024/01/25 15:05:32;;;;;;;;;;;8.30;99.90;;;;;;8433172;28;20368;-75
2024/01/25 15:09:34;;;;;;;;;;;8.20;99.90;;;;;;8416975;28;20388;-75
2024/01/25 15:13:36;;;;;;;;;;;8.20;99.90;;;;;;8424280;28;19976;-75
2024/01/25 15:17:38;;;;;;;;;;;8.20;99.90;;;;;;8429990;28;20339;-75
2024/01/25 15:21:39;;;;;;;;;;;8.10;99.90;;;;;;8415312;28;19925;-75
2024/01/25 15:25:41;;;;;;;;;;;8.10;99.90;;;;;;8433806;28;20390;-75
2024/01/25 15:29:43;;;;;;;;;;;8.10;99.90;;;;;;8429154;27;19935;-75
2024/01/25 15:33:45;;;;;;;;;;;8.10;99.90;;;;;;8437247;28;19977;-75
2024/01/25 15:37:47;;;;;;;;;;;8.10;99.90;;;;;;8426220;28;19974;-75
2024/01/25 15:41:49;;;;;;;;;;;8.10;99.90;;;;;;8432533;27;19924;-75
2024/01/25 15:45:51;;;;;;;;;;;8.00;99.90;;;;;;8437487;28;19932;-75
2024/01/25 15:49:52;;;;;;;;;;;8.00;99.90;;;;;;8430288;27;19931;-74
2024/01/25 15:53:54;;;;;;;;;;;8.00;99.90;;;;;;8426048;28;19924;-75
2024/01/25 15:57:56;;;;;;;;;;;8.00;99.90;;;;;;8423508;27;19978;-75
2024/01/25 16:01:58;;;;;;;;;;;8.00;99.90;;;;;;8428126;28;19936;-75
2024/01/25 16:06:01;;;;;;;;;;;7.90;99.90;;;;;;8415654;28;19924;-75
2024/01/25 16:10:03;;;;;;;;;;;8.00;99.90;;;;;;8426694;28;20286;-75
2024/01/25 16:14:05;;;;;;;;;;;8.00;99.90;;;;;;8429220;28;19931;-75
2024/01/25 16:18:06;;;;;;;;;;;8.00;99.90;;;;;;8435952;28;20362;-75
2024/01/25 16:22:08;;;;;;;;;;;7.90;99.90;;;;;;8426151;28;19932;-75
2024/01/25 16:26:10;;;;;;;;;;;7.90;99.90;;;;;;8429936;28;20292;-75
2024/01/25 16:30:12;;;;;;;;;;;7.90;99.90;;;;;;8425591;28;20272;-75
2024/01/25 16:34:15;;;;;;;;;;;8.00;99.90;;;;;;8414130;28;19955;-75
2024/01/25 16:38:17;;;;;;;;;;;8.00;99.90;;;;;;8421722;28;19930;-75
2024/01/25 16:42:19;;;;;;;;;;;8.00;99.90;;;;;;8419283;28;19928;-74
2024/01/25 16:46:21;;;;;;;;;;;8.00;99.90;;;;;;8426627;28;20391;-74
2024/01/25 16:50:22;;;;;;;;;;;7.90;99.90;;;;;;8407313;28;19924;-75
2024/01/25 16:54:25;;;;;;;;;;;8.00;99.90;;;;;;8422507;28;19949;-75
2024/01/25 16:58:27;;;;;;;;;;;8.00;99.90;;;;;;8420803;28;20401;-75
2024/01/25 17:02:28;;;;;;;;;;;8.00;99.90;;;;;;8408973;28;19924;-75
2024/01/25 17:06:30;;;;;;;;;;;8.00;99.90;;;;;;8432143;27;19951;-75
2024/01/25 17:10:32;;;;;;;;;;;8.00;99.90;;;;;;8417594;28;20048;-75
2024/01/25 17:14:34;;;;;;;;;;;8.00;99.90;;;;;;8422098;28;20306;-74
2024/01/25 17:18:35;;;;;;;;;;;8.00;99.90;;;;;;8440170;28;19936;-75
2024/01/25 17:22:37;;;;;;;;;;;8.10;99.90;;;;;;8441277;28;19924;-75
2024/01/25 17:26:39;;;;;;;;;;;8.10;99.90;;;;;;8441412;28;19927;-75
2024/01/25 17:30:40;;;;;;;;;;;8.00;99.90;;;;;;8428961;28;20402;-75
2024/01/25 17:34:42;;;;;;;;;;;8.10;99.90;;;;;;8427669;27;19924;-75
2024/01/25 17:38:44;;;;;;;;;;;8.10;99.90;;;;;;8428803;28;19981;-75
2024/01/25 17:42:46;;;;;;;;;;;8.10;99.90;;;;;;8431512;28;19932;-74
2024/01/25 17:46:50;;;;;;;;;;;8.10;99.90;;;;;;8415479;28;20043;-75
2024/01/25 17:50:51;;;;;;;;;;;8.10;99.90;;;;;;8431671;28;19935;-75
2024/01/25 17:54:53;;;;;;;;;;;8.20;99.90;;;;;;8427199;28;19936;-75
2024/01/25 17:58:55;;;;;;;;;;;8.20;99.90;;;;;;8419968;28;20297;-75
2024/01/25 18:02:57;;;;;;;;;;;8.20;99.90;;;;;;8410403;28;20260;-75
2024/01/25 18:06:59;;;;;;;;;;;8.20;99.90;;;;;;8421439;28;19955;-75
2024/01/25 18:11:00;;;;;;;;;;;8.30;99.90;;;;;;8422441;28;20034;-75
2024/01/25 18:15:02;;;;;;;;;;;8.30;99.90;;;;;;8415379;27;19939;-75
2024/01/25 18:19:04;;;;;;;;;;;8.30;99.90;;;;;;8410512;28;20446;-75
2024/01/25 18:23:06;;;;;;;;;;;8.40;99.90;;;;;;8418960;28;20324;-75
2024/01/25 18:27:07;;;;;;;;;;;8.40;99.90;;;;;;8428938;27;19924;-75
2024/01/25 18:31:09;;;;;;;;;;;8.40;99.90;;;;;;8432755;28;20315;-75
2024/01/25 18:35:11;;;;;;;;;;;8.40;99.90;;;;;;8422179;28;20353;-75
2024/01/25 18:39:12;;;;;;;;;;;8.50;99.90;;;;;;8424643;28;20014;-75
2024/01/25 18:43:15;;;;;;;;;;;8.50;99.90;;;;;;8405417;28;19932;-75
2024/01/25 18:47:17;;;;;;;;;;;8.50;99.90;;;;;;8426273;28;19931;-75
2024/01/25 18:51:18;;;;;;;;;;;8.50;99.90;;;;;;8424505;28;19928;-75
2024/01/25 18:55:21;;;;;;;;;;;8.60;99.90;;;;;;8419764;28;20012;-75
2024/01/25 18:59:24;;;;;;;;;;;8.60;99.90;;;;;;8425182;28;19930;-75
2024/01/25 19:03:27;;;;;;;;;;;8.60;99.90;;;;;;8425717;28;19924;-75
2024/01/25 19:07:29;;;;;;;;;;;8.60;99.90;;;;;;8420686;28;19928;-75
2024/01/25 19:11:31;;;;;;;;;;;8.70;99.90;;;;;;8424984;28;19928;-75
2024/01/25 19:15:33;;;;;;;;;;;8.70;99.90;;;;;;8406875;28;20728;-75
2024/01/25 19:19:35;;;;;;;;;;;8.70;99.90;;;;;;8409364;28;20401;-75
2024/01/25 19:23:37;;;;;;;;;;;8.70;99.90;;;;;;8423335;28;20286;-75
2024/01/25 19:27:39;;;;;;;;;;;8.70;99.90;;;;;;8427125;28;19983;-75
2024/01/25 19:31:41;;;;;;;;;;;8.80;99.90;;;;;;8427006;28;19971;-75
2024/01/25 19:35:48;;;;;;;;;;;8.80;99.90;;;;;;8422486;28;19924;-75
2024/01/25 19:39:53;;;;;;;;;;;8.80;99.90;;;;;;8424800;28;19959;-75
2024/01/25 19:43:54;;;;;;;;;;;8.80;99.90;;;;;;8420542;28;19935;-75
2024/01/25 19:47:56;;;;;;;;;;;8.90;99.90;;;;;;8424516;28;20233;-75
2024/01/25 19:51:58;;;;;;;;;;;8.90;99.90;;;;;;8423389;28;20395;-75
2024/01/25 19:56:00;;;;;;;;;;;8.90;99.90;;;;;;8424512;28;19963;-75
2024/01/25 20:00:02;;;;;;;;;;;9.00;99.90;;;;;;8427127;28;20921;-75
2024/01/25 20:04:04;;;;;;;;;;;9.00;99.90;;;;;;8426422;28;20279;-75
2024/01/25 20:08:06;;;;;;;;;;;9.10;99.90;;;;;;8421237;28;19956;-75
2024/01/25 20:12:08;;;;;;;;;;;9.10;99.90;;;;;;8435216;28;19924;-75
2024/01/25 20:16:10;;;;;;;;;;;9.20;99.90;;;;;;8433782;28;19956;-75
2024/01/25 20:20:11;;;;;;;;;;;9.20;99.90;;;;;;8421537;28;19967;-75
2024/01/25 20:24:13;;;;;;;;;;;9.30;99.90;;;;;;8437875;28;19924;-75
2024/01/25 20:28:15;;;;;;;;;;;9.30;99.90;;;;;;8443342;28;20621;-75
2024/01/25 20:32:17;;;;;;;;;;;9.30;99.90;;;;;;8428760;28;19938;-75
2024/01/25 20:36:18;;;;;;;;;;;9.40;99.90;;;;;;8431195;28;20013;-75
2024/01/25 20:40:20;;;;;;;;;;;9.40;99.90;;;;;;8428789;27;19990;-75
2024/01/25 20:44:22;;;;;;;;;;;9.40;99.90;;;;;;8431283;28;19966;-75
2024/01/25 20:48:24;;;;;;;;;;;9.50;99.90;;;;;;8442472;27;19924;-75
2024/01/25 20:52:26;;;;;;;;;;;9.50;99.90;;;;;;8414222;28;19931;-75
2024/01/25 20:56:27;;;;;;;;;;;9.50;99.90;;;;;;8426725;28;20010;-75
2024/01/25 21:00:29;;;;;;;;;;;9.60;99.90;;;;;;8423165;28;19924;-75
2024/01/25 21:04:32;;;;;;;;;;;9.60;99.90;;;;;;8433333;27;19932;-75
2024/01/25 21:08:34;;;;;;;;;;;9.60;99.90;;;;;;8411800;27;19962;-76
2024/01/25 21:12:36;;;;;;;;;;;9.60;99.90;;;;;;8429593;28;20546;-75
2024/01/25 21:16:37;;;;;;;;;;;9.60;99.90;;;;;;8427693;28;19936;-75
2024/01/25 21:20:39;;;;;;;;;;;9.60;99.90;;;;;;8435708;28;20650;-76
2024/01/25 21:24:41;;;;;;;;;;;9.60;99.90;;;;;;8433850;28;19924;-76
2024/01/25 21:28:44;;;;;;;;;;;9.70;99.90;;;;;;8444370;27;19946;-76
2024/01/25 21:32:46;;;;;;;;;;;9.70;99.90;;;;;;8431615;28;19932;-76
2024/01/25 21:36:48;;;;;;;;;;;9.70;99.90;;;;;;8435451;28;20375;-76
2024/01/25 21:45:53;;;;;;;;;;;9.70;99.90;;;;;;8425753;28;19922;-76
2024/01/25 21:49:55;;;;;;;;;;;9.80;99.90;;;;;;8429025;28;19931;-76
2024/01/25 21:53:56;;;;;;;;;;;9.80;99.90;;;;;;8411661;28;19938;-76
2024/01/25 21:57:58;;;;;;;;;;;9.70;99.90;;;;;;8427003;28;20379;-76
2024/01/25 22:02:00;;;;;;;;;;;9.80;99.90;;;;;;8440633;28;20252;-76
2024/01/25 22:06:02;;;;;;;;;;;9.80;99.90;;;;;;8453855;28;20321;-76
2024/01/25 22:10:04;;;;;;;;;;;9.80;99.90;;;;;;8455911;28;19923;-76
2024/01/25 22:14:05;;;;;;;;;;;9.80;99.90;;;;;;8437952;27;20274;-75
2024/01/25 22:18:07;;;;;;;;;;;9.80;99.90;;;;;;8440493;28;19927;-76
2024/01/25 22:22:09;;;;;;;;;;;9.80;99.90;;;;;;8458192;28;19923;-76
2024/01/25 22:26:11;;;;;;;;;;;9.80;99.90;;;;;;8445951;28;19995;-76
2024/01/25 22:30:13;;;;;;;;;;;9.80;99.90;;;;;;8439997;28;19924;-76
2024/01/25 22:34:16;;;;;;;;;;;9.80;99.90;;;;;;8451079;28;19979;-76
2024/01/25 22:38:18;;;;;;;;;;;9.80;99.90;;;;;;8436830;28;20349;-76
2024/01/25 22:42:20;;;;;;;;;;;9.80;99.90;;;;;;8439535;28;19924;-76
2024/01/25 22:46:22;;;;;;;;;;;9.80;99.90;;;;;;8455482;28;19932;-76
2024/01/25 22:50:23;;;;;;;;;;;9.80;99.90;;;;;;8458867;28;19935;-76
2024/01/25 22:54:25;;;;;;;;;;;9.90;99.90;;;;;;8454101;28;19923;-76
2024/01/25 22:58:27;;;;;;;;;;;9.90;99.90;;;;;;8458582;28;19931;-75
2024/01/25 23:02:28;;;;;;;;;;;9.90;99.90;;;;;;8457987;28;19924;-75
2024/01/25 23:06:30;;;;;;;;;;;9.90;99.90;;;;;;8437868;28;19923;-76
2024/01/25 23:10:32;;;;;;;;;;;9.90;99.90;;;;;;8457087;28;19930;-76
2024/01/25 23:14:34;;;;;;;;;;;9.90;99.90;;;;;;8449431;28;19997;-76
2024/01/25 23:18:35;;;;;;;;;;;9.90;99.90;;;;;;8431164;28;19955;-76
2024/01/25 23:22:37;;;;;;;;;;;9.90;99.90;;;;;;8456598;28;19924;-76
2024/01/25 23:26:39;;;;;;;;;;;9.90;99.90;;;;;;8429960;28;19924;-76
2024/01/25 23:30:41;;;;;;;;;;;9.90;99.90;;;;;;8451523;28;19931;-75
2024/01/25 23:34:43;;;;;;;;;;;9.90;99.90;;;;;;8439149;28;19963;-76
2024/01/25 23:38:46;;;;;;;;;;;9.90;99.90;;;;;;8443765;28;19967;-75
2024/01/25 23:42:48;;;;;;;;;;;9.90;99.90;;;;;;8466547;27;19932;-76
2024/01/25 23:46:50;;;;;;;;;;;9.90;99.90;;;;;;8461107;28;20340;-76
2024/01/25 23:50:51;;;;;;;;;;;9.90;99.90;;;;;;8463757;28;19976;-76
2024/01/25 23:54:55;;;;;;;;;;;9.90;99.90;;;;;;8443556;28;20321;-75
2024/01/25 23:58:56;;;;;;;;;;;9.90;99.90;;;;;;8444561;28;19972;-76
